createdAt,value
2022-11-29T00:01:23.773Z,98.56
2022-11-29T00:04:26.728Z,98.66
2022-11-29T00:07:29.834Z,98.89
2022-11-29T00:10:35.614Z,98.96
2022-11-29T00:13:39.316Z,98.78
2022-11-29T00:16:42.578Z,98.76
2022-11-29T00:19:45.652Z,98.70
2022-11-29T00:22:48.462Z,99.11
2022-11-29T00:25:51.479Z,98.89
2022-11-29T00:28:54.522Z,98.81
2022-11-29T00:31:57.542Z,98.83
2022-11-29T00:35:02.912Z,99.03
2022-11-29T00:38:08.097Z,98.71
2022-11-29T00:41:12.248Z,98.96
2022-11-29T00:44:19.898Z,98.57
2022-11-29T00:47:23.457Z,98.57
2022-11-29T00:50:26.365Z,98.66
2022-11-29T00:53:29.426Z,98.61
2022-11-29T00:56:32.586Z,98.92
2022-11-29T00:59:36.582Z,98.11
2022-11-29T01:02:39.513Z,97.98
2022-11-29T01:05:43.132Z,98.19
2022-11-29T01:08:46.394Z,98.09
2022-11-29T01:11:50.380Z,97.67
2022-11-29T01:14:53.345Z,97.56
2022-11-29T01:17:56.317Z,97.61
2022-11-29T01:21:14.812Z,97.60
2022-11-29T01:24:17.614Z,97.56
2022-11-29T01:27:20.396Z,97.57
2022-11-29T01:30:23.346Z,97.39
2022-11-29T01:33:26.243Z,97.53
2022-11-29T01:36:29.549Z,97.59
2022-11-29T01:39:32.642Z,97.54
2022-11-29T01:42:35.452Z,97.41
2022-11-29T01:45:38.864Z,97.38
2022-11-29T01:48:41.765Z,97.18
2022-11-29T01:51:53.679Z,97.25
2022-11-29T01:55:00.650Z,97.24
2022-11-29T01:58:04.694Z,97.07
2022-11-29T02:01:07.609Z,97.02
2022-11-29T02:04:11.098Z,96.89
2022-11-29T02:07:14.210Z,96.69
2022-11-29T02:10:17.632Z,96.74
2022-11-29T02:13:45.299Z,97.04
2022-11-29T02:17:10.397Z,96.66
2022-11-29T02:20:31.319Z,96.84
2022-11-29T02:24:13.126Z,96.76
2022-11-29T02:27:55.159Z,96.95
2022-11-29T02:30:58.038Z,97.09
2022-11-29T02:34:06.952Z,96.73
2022-11-29T02:37:21.788Z,96.63
2022-11-29T02:40:27.690Z,96.46
2022-11-29T02:43:59.339Z,96.89
2022-11-29T02:47:25.337Z,96.60
2022-11-29T02:50:57.357Z,96.74
2022-11-29T02:54:16.863Z,96.60
2022-11-29T02:57:38.347Z,96.65
2022-11-29T03:00:49.512Z,96.28
2022-11-29T03:04:10.532Z,96.05
2022-11-29T03:07:35.309Z,96.19
2022-11-29T03:11:03.188Z,96.35
2022-11-29T03:14:24.486Z,96.45
2022-11-29T03:18:01.371Z,96.46
2022-11-29T03:21:18.277Z,96.04
2022-11-29T03:24:51.395Z,96.18
2022-11-29T03:28:29.472Z,96.20
2022-11-29T03:31:57.006Z,96.19
2022-11-29T03:35:18.503Z,96.16
2022-11-29T03:38:35.386Z,95.99
2022-11-29T03:41:40.550Z,95.59
2022-11-29T03:44:53.761Z,95.31
2022-11-29T03:48:12.646Z,95.68
2022-11-29T03:51:22.131Z,95.86
2022-11-29T03:54:32.858Z,95.68
2022-11-29T03:57:38.727Z,95.74
2022-11-29T04:01:16.259Z,95.91
2022-11-29T04:04:34.319Z,96.45
2022-11-29T04:08:02.201Z,96.37
2022-11-29T04:11:23.589Z,95.55
2022-11-29T04:14:58.183Z,96.10
2022-11-29T04:18:16.156Z,96.46
2022-11-29T04:21:49.947Z,96.74
2022-11-29T04:25:30.042Z,96.80
2022-11-29T04:28:51.717Z,96.28
2022-11-29T04:32:16.718Z,96.72
2022-11-29T04:35:49.594Z,97.11
2022-11-29T04:39:01.535Z,96.95
2022-11-29T04:42:49.986Z,97.40
2022-11-29T04:46:31.816Z,97.62
2022-11-29T04:49:54.198Z,97.43
2022-11-29T04:53:02.759Z,97.51
2022-11-29T04:56:36.738Z,97.54
2022-11-29T05:00:02.724Z,97.42
2022-11-29T05:03:20.484Z,97.64
2022-11-29T05:07:04.521Z,97.28
2022-11-29T05:10:22.585Z,97.42
2022-11-29T05:13:29.145Z,97.55
2022-11-29T05:16:45.270Z,96.96
2022-11-29T05:20:16.073Z,97.03
2022-11-29T05:23:57.492Z,97.10
2022-11-29T05:27:35.967Z,96.98
2022-11-29T05:31:17.224Z,96.75
2022-11-29T05:34:38.372Z,96.81
2022-11-29T05:38:02.879Z,96.93
2022-11-29T05:41:37.485Z,96.93
2022-11-29T05:44:46.840Z,97.08
2022-11-29T05:47:57.810Z,97.02
2022-11-29T05:51:10.975Z,96.94
2022-11-29T05:54:13.807Z,96.89
2022-11-29T05:57:53.818Z,96.89
2022-11-29T06:01:19.006Z,96.83
2022-11-29T06:04:41.658Z,97.35
2022-11-29T06:07:54.643Z,97.81
2022-11-29T06:11:20.835Z,97.60
2022-11-29T06:14:48.008Z,97.56
2022-11-29T06:18:23.104Z,97.47
2022-11-29T06:21:29.037Z,98.10
2022-11-29T06:24:50.999Z,97.71
2022-11-29T06:28:09.015Z,97.60
2022-11-29T06:31:11.970Z,97.50
2022-11-29T06:34:22.402Z,98.17
2022-11-29T06:37:40.503Z,97.73
2022-11-29T06:40:43.455Z,98.18
2022-11-29T06:43:46.554Z,98.03
2022-11-29T06:47:05.664Z,98.04
2022-11-29T06:50:26.686Z,98.64
2022-11-29T06:53:51.292Z,99.02
2022-11-29T06:57:17.385Z,98.79
2022-11-29T07:00:27.085Z,98.69
2022-11-29T07:03:41.796Z,98.40
2022-11-29T07:06:44.902Z,97.83
2022-11-29T07:09:53.733Z,97.49
2022-11-29T07:12:57.266Z,96.08
2022-11-29T07:16:13.971Z,95.98
2022-11-29T07:19:24.000Z,95.84
2022-11-29T07:22:59.925Z,95.24
2022-11-29T07:26:22.104Z,94.34
2022-11-29T07:29:55.661Z,93.29
2022-11-29T07:33:16.824Z,93.73
2022-11-29T07:36:23.977Z,94.03
2022-11-29T07:39:53.192Z,94.56
2022-11-29T07:43:19.604Z,94.55
2022-11-29T07:46:37.327Z,94.80
2022-11-29T07:49:40.197Z,94.56
2022-11-29T07:52:47.498Z,94.72
2022-11-29T07:55:55.473Z,95.04
2022-11-29T07:58:59.470Z,95.36
2022-11-29T08:02:08.784Z,94.35
2022-11-29T08:05:15.863Z,94.55
2022-11-29T08:08:22.352Z,94.26
2022-11-29T08:11:26.414Z,93.71
2022-11-29T08:14:33.194Z,94.93
2022-11-29T08:17:38.256Z,94.62
2022-11-29T08:20:42.248Z,94.91
2022-11-29T08:23:46.305Z,95.34
2022-11-29T08:26:49.606Z,94.87
2022-11-29T08:29:53.948Z,95.07
2022-11-29T08:32:58.646Z,94.84
2022-11-29T08:36:11.608Z,95.08
2022-11-29T08:39:14.718Z,94.27
2022-11-29T08:42:17.784Z,93.95
2022-11-29T08:45:20.568Z,93.35
2022-11-29T08:48:23.395Z,94.34
2022-11-29T08:51:26.229Z,93.83
2022-11-29T08:54:29.033Z,94.02
2022-11-29T08:57:41.902Z,93.89
2022-11-29T09:00:47.391Z,93.91
2022-11-29T09:04:05.135Z,94.16
2022-11-29T09:07:08.152Z,93.03
2022-11-29T09:10:12.312Z,92.48
2022-11-29T09:13:15.314Z,91.76
2022-11-29T09:16:20.780Z,91.44
2022-11-29T09:19:24.092Z,90.69
2022-11-29T09:22:27.551Z,90.04
2022-11-29T09:25:30.675Z,90.41
2022-11-29T09:28:34.616Z,90.01
2022-11-29T09:31:38.641Z,89.05
2022-11-29T09:34:42.455Z,88.55
2022-11-29T09:37:45.697Z,87.85
2022-11-29T09:40:57.255Z,86.93
2022-11-29T09:44:17.300Z,87.47
2022-11-29T09:47:33.249Z,86.98
2022-11-29T09:50:43.167Z,85.69
2022-11-29T09:54:40.747Z,85.73
2022-11-29T09:57:44.545Z,86.18
2022-11-29T10:00:54.629Z,83.87
2022-11-29T10:04:19.567Z,84.56
2022-11-29T10:07:27.457Z,83.63
2022-11-29T10:10:41.672Z,80.17
2022-11-29T10:13:53.874Z,76.77
2022-11-29T10:17:34.364Z,76.29
2022-11-29T10:20:48.819Z,80.16
2022-11-29T10:23:56.574Z,79.35
2022-11-29T10:26:59.834Z,72.38
2022-11-29T10:30:03.195Z,66.19
2022-11-29T10:33:18.181Z,67.07
2022-11-29T10:36:31.601Z,65.53
2022-11-29T10:39:57.522Z,65.02
2022-11-29T10:43:01.607Z,65.23
2022-11-29T10:46:06.120Z,66.26
2022-11-29T10:49:20.756Z,68.15
2022-11-29T10:52:24.595Z,72.38
2022-11-29T10:55:31.571Z,74.94
2022-11-29T10:58:36.194Z,73.66
2022-11-29T11:01:43.990Z,75.42
2022-11-29T11:04:48.412Z,77.52
2022-11-29T11:08:18.266Z,78.40
2022-11-29T11:11:33.873Z,77.80
2022-11-29T11:15:00.876Z,77.89
2022-11-29T11:18:07.008Z,76.12
2022-11-29T11:21:15.686Z,75.91
2022-11-29T11:24:25.232Z,69.58
2022-11-29T11:27:35.985Z,66.44
2022-11-29T11:30:39.015Z,60.83
2022-11-29T11:33:46.132Z,63.44
2022-11-29T11:36:49.276Z,65.41
2022-11-29T11:39:58.939Z,66.55
2022-11-29T11:43:36.859Z,65.57
2022-11-29T11:46:56.450Z,66.42
2022-11-29T11:50:02.785Z,68.05
2022-11-29T11:53:17.651Z,69.49
2022-11-29T11:56:22.269Z,70.11
2022-11-29T11:59:28.086Z,72.19
2022-11-29T12:02:41.491Z,74.05
2022-11-29T12:05:48.843Z,74.95
2022-11-29T12:08:58.012Z,77.04
2022-11-29T12:12:07.283Z,77.05
2022-11-29T12:15:35.795Z,77.38
2022-11-29T12:18:51.705Z,78.56
2022-11-29T12:22:02.938Z,79.31
2022-11-29T12:25:14.179Z,79.59
2022-11-29T12:28:20.761Z,79.84
2022-11-29T12:31:43.204Z,79.28
2022-11-29T12:35:08.396Z,79.09
2022-11-29T12:38:32.718Z,80.07
2022-11-29T12:42:17.055Z,80.18
2022-11-29T12:45:29.234Z,80.33
2022-11-29T12:48:56.919Z,79.98
2022-11-29T12:52:09.294Z,79.79
2022-11-29T12:55:49.720Z,80.87
2022-11-29T12:59:15.294Z,80.30
2022-11-29T13:02:41.623Z,80.55
2022-11-29T13:06:22.039Z,81.25
2022-11-29T13:09:43.896Z,81.27
2022-11-29T13:12:55.858Z,81.30
2022-11-29T13:16:01.622Z,81.63
2022-11-29T13:19:18.437Z,80.88
2022-11-29T13:23:14.960Z,82.36
2022-11-29T13:26:18.933Z,82.53
2022-11-29T13:29:22.363Z,82.76
2022-11-29T13:32:37.483Z,83.22
2022-11-29T13:35:51.506Z,83.80
2022-11-29T13:39:06.582Z,83.36
2022-11-29T13:42:27.350Z,83.73
2022-11-29T13:46:09.258Z,83.89
2022-11-29T13:49:41.978Z,84.12
2022-11-29T13:52:47.678Z,84.59
2022-11-29T13:56:01.592Z,84.80
2022-11-29T13:59:14.355Z,84.57
2022-11-29T14:02:30.563Z,84.18
2022-11-29T14:05:38.312Z,84.85
2022-11-29T14:09:17.087Z,85.28
2022-11-29T14:12:31.586Z,85.59
2022-11-29T14:15:34.663Z,85.92
2022-11-29T14:18:37.511Z,86.26
2022-11-29T14:21:58.934Z,86.91
2022-11-29T14:25:49.183Z,87.36
2022-11-29T14:28:44.168Z,87.17
2022-11-29T14:31:49.781Z,86.67
2022-11-29T14:34:57.735Z,86.63
2022-11-29T14:38:15.586Z,87.79
2022-11-29T14:41:27.415Z,87.66
2022-11-29T14:44:32.458Z,87.88
2022-11-29T14:47:39.052Z,88.85
2022-11-29T14:50:42.306Z,88.67
2022-11-29T14:53:47.936Z,88.54
2022-11-29T14:56:50.934Z,89.23
2022-11-29T14:59:54.852Z,89.67
2022-11-29T15:03:16.145Z,89.36
2022-11-29T15:06:30.393Z,89.04
2022-11-29T15:09:35.004Z,89.63
2022-11-29T15:12:38.635Z,89.63
2022-11-29T15:16:13.167Z,90.14
2022-11-29T15:19:49.499Z,90.78
2022-11-29T15:22:55.455Z,91.10
2022-11-29T15:26:01.613Z,90.92
2022-11-29T15:29:19.812Z,90.79
2022-11-29T15:32:25.875Z,90.74
2022-11-29T15:35:29.245Z,90.89
2022-11-29T15:38:42.949Z,90.68
2022-11-29T15:41:45.766Z,91.04
2022-11-29T15:44:49.323Z,91.22
2022-11-29T15:47:52.616Z,91.39
2022-11-29T15:51:01.516Z,91.61
2022-11-29T15:54:13.843Z,90.98
2022-11-29T15:57:22.950Z,90.95
2022-11-29T16:00:28.269Z,91.19
2022-11-29T16:03:34.940Z,90.94
2022-11-29T16:06:42.859Z,90.68
2022-11-29T16:09:50.553Z,90.79
2022-11-29T16:13:04.090Z,91.50
2022-11-29T16:16:20.621Z,91.97
2022-11-29T16:19:37.095Z,92.38
2022-11-29T16:22:40.035Z,92.60
2022-11-29T16:26:41.582Z,92.70
2022-11-29T16:29:46.232Z,92.64
2022-11-29T16:32:54.826Z,92.44
2022-11-29T16:36:29.338Z,92.54
2022-11-29T16:39:35.200Z,92.70
2022-11-29T16:42:38.722Z,93.01
2022-11-29T16:45:42.601Z,93.51
2022-11-29T16:48:45.941Z,93.45
2022-11-29T16:51:55.392Z,93.23
2022-11-29T16:54:58.410Z,93.74
2022-11-29T16:58:04.351Z,93.42
2022-11-29T17:01:17.867Z,94.23
2022-11-29T17:04:25.377Z,93.44
2022-11-29T17:07:35.281Z,93.26
2022-11-29T17:10:38.486Z,93.40
2022-11-29T17:13:41.291Z,93.56
2022-11-29T17:16:44.835Z,93.37
2022-11-29T17:19:47.773Z,93.37
2022-11-29T17:22:50.590Z,93.51
2022-11-29T17:25:57.739Z,93.19
2022-11-29T17:29:01.205Z,92.83
2022-11-29T17:32:04.602Z,93.70
2022-11-29T17:35:08.300Z,92.73
2022-11-29T17:38:11.346Z,92.04
2022-11-29T17:41:22.547Z,91.66
2022-11-29T17:44:25.510Z,91.78
2022-11-29T17:47:28.299Z,92.04
2022-11-29T17:50:31.247Z,92.29
2022-11-29T17:53:35.528Z,92.52
2022-11-29T17:56:38.436Z,91.74
2022-11-29T17:59:41.303Z,92.25
2022-11-29T18:02:44.277Z,92.19
2022-11-29T18:05:47.059Z,92.12
2022-11-29T18:08:52.136Z,92.13
2022-11-29T18:11:55.142Z,91.82
2022-11-29T18:14:58.010Z,92.01
2022-11-29T18:18:00.956Z,92.25
2022-11-29T18:21:05.908Z,92.67
2022-11-29T18:24:09.883Z,92.83
2022-11-29T18:27:12.844Z,92.96
2022-11-29T18:30:16.535Z,92.69
2022-11-29T18:33:20.278Z,92.50
2022-11-29T18:36:26.274Z,92.95
2022-11-29T18:39:30.830Z,92.84
2022-11-29T18:42:33.938Z,92.83
2022-11-29T18:45:38.300Z,92.79
2022-11-29T18:48:44.614Z,92.68
2022-11-29T18:51:49.233Z,92.70
2022-11-29T18:54:52.308Z,92.64
2022-11-29T18:57:55.407Z,92.59
2022-11-29T19:01:29.292Z,92.96
2022-11-29T19:04:32.733Z,92.80
2022-11-29T19:07:35.544Z,92.77
2022-11-29T19:10:38.981Z,92.32
2022-11-29T19:13:42.371Z,92.43
2022-11-29T19:16:47.871Z,92.04
2022-11-29T19:19:50.893Z,92.04
2022-11-29T19:23:00.200Z,92.49
2022-11-29T19:26:09.084Z,91.23
2022-11-29T19:29:15.766Z,92.04
2022-11-29T19:32:18.880Z,91.35
2022-11-29T19:35:21.976Z,91.64
2022-11-29T19:38:25.171Z,91.50
2022-11-29T19:41:34.148Z,92.00
2022-11-29T19:45:08.749Z,91.64
2022-11-29T19:48:00.330Z,92.05
2022-11-29T19:51:04.554Z,91.58
2022-11-29T19:54:09.388Z,91.83
2022-11-29T19:57:12.139Z,91.75
2022-11-29T20:00:16.003Z,91.67
2022-11-29T20:03:19.011Z,91.52
2022-11-29T20:06:22.444Z,91.18
2022-11-29T20:09:28.774Z,91.10
2022-11-29T20:12:32.967Z,91.19
2022-11-29T20:15:35.730Z,92.11
2022-11-29T20:18:48.760Z,91.64
2022-11-29T20:21:54.931Z,91.67
2022-11-29T20:24:58.093Z,91.59
2022-11-29T20:28:04.220Z,92.18
2022-11-29T20:31:09.153Z,92.16
2022-11-29T20:34:14.330Z,92.08
2022-11-29T20:37:44.876Z,92.41
2022-11-29T20:41:06.286Z,92.60
2022-11-29T20:44:16.304Z,92.65
2022-11-29T20:47:22.581Z,92.41
2022-11-29T20:50:28.005Z,92.91
2022-11-29T20:53:31.736Z,92.65
2022-11-29T20:56:34.692Z,93.27
2022-11-29T20:59:37.811Z,92.58
2022-11-29T21:02:40.512Z,93.16
2022-11-29T21:05:43.939Z,92.68
2022-11-29T21:08:46.871Z,92.87
2022-11-29T21:11:50.442Z,92.86
2022-11-29T21:14:53.829Z,91.92
2022-11-29T21:17:57.034Z,92.22
2022-11-29T21:21:07.478Z,92.22
2022-11-29T21:24:28.906Z,92.91
2022-11-29T21:27:33.739Z,92.72
2022-11-29T21:30:37.191Z,92.04
2022-11-29T21:33:40.443Z,92.15
2022-11-29T21:36:44.398Z,91.95
2022-11-29T21:39:49.323Z,92.31
2022-11-29T21:42:52.197Z,92.09
2022-11-29T21:45:55.075Z,91.95
2022-11-29T21:48:57.862Z,92.07
2022-11-29T21:52:01.343Z,91.61
2022-11-29T21:55:04.550Z,91.71
2022-11-29T21:58:07.316Z,91.67
2022-11-29T22:01:14.108Z,91.90
2022-11-29T22:04:17.100Z,91.33
2022-11-29T22:07:20.028Z,91.42
2022-11-29T22:10:22.997Z,90.91
2022-11-29T22:13:26.050Z,90.91
2022-11-29T22:16:30.074Z,90.74
2022-11-29T22:19:36.301Z,91.32
2022-11-29T22:22:39.007Z,90.67
2022-11-29T22:25:41.823Z,90.64
2022-11-29T22:28:44.619Z,90.59
2022-11-29T22:31:50.416Z,90.94
2022-11-29T22:34:53.326Z,90.92
2022-11-29T22:37:56.208Z,91.38
2022-11-29T22:41:04.138Z,91.53
2022-11-29T22:44:07.864Z,91.35
2022-11-29T22:47:12.872Z,90.84
2022-11-29T22:50:15.611Z,91.60
2022-11-29T22:53:18.345Z,91.22
2022-11-29T22:56:23.080Z,91.23
